Time;durP1;ratioP1;P1;durP2;ratioP2;P2;SDS_P1;SDS_P2;PMS_P1;PMS_P2;Temp;Humidity;BMP_temperature;BMP_pressure;BME280_temperature;BME280_humidity;BME280_pressure;Samples;Min_cycle;Max_cycle;Signal;HPM_P1;HPM_P2
2023/01/12 00:01:53;;;;;;;14.40;2.92;;;;;;;9.57;100.00;100707.88;5051778;28;20052;-73
2023/01/12 00:04:19;;;;;;;11.55;3.35;;;;;;;9.68;100.00;100702.38;5054737;28;20086;-73
2023/01/12 00:06:47;;;;;;;12.13;2.67;;;;;;;9.68;100.00;100707.91;5057252;28;20090;-73
2023/01/12 00:09:14;;;;;;;17.15;2.88;;;;;;;9.65;100.00;100700.41;5050362;28;20044;-73
2023/01/12 00:11:40;;;;;;;12.60;3.05;;;;;;;9.71;100.00;100702.38;5053561;28;20931;-73
2023/01/12 00:14:08;;;;;;;10.65;2.75;;;;;;;9.72;100.00;100694.91;5050419;28;20988;-73
2023/01/12 00:16:38;;;;;;;17.45;3.35;;;;;;;9.71;100.00;100693.31;5055179;28;20058;-72
2023/01/12 00:19:16;;;;;;;14.63;2.92;;;;;;;9.72;100.00;100681.84;5055049;28;20155;-72
2023/01/12 00:24:27;;;;;;;17.30;2.53;;;;;;;9.76;100.00;100690.16;5050345;28;20049;-73
2023/01/12 00:26:55;;;;;;;12.80;2.40;;;;;;;9.81;100.00;100692.53;5046444;28;20102;-73
2023/01/12 00:29:22;;;;;;;9.57;1.80;;;;;;;9.85;100.00;100683.06;5051174;28;20055;-73
2023/01/12 00:31:49;;;;;;;11.30;3.03;;;;;;;9.74;100.00;100709.09;5062085;28;20063;-73
2023/01/12 00:34:16;;;;;;;12.60;2.35;;;;;;;9.69;100.00;100693.69;5062758;28;20048;-73
2023/01/12 00:36:44;;;;;;;15.82;3.47;;;;;;;9.69;100.00;100695.69;5054916;28;20176;-73
2023/01/12 00:39:11;;;;;;;10.65;2.72;;;;;;;9.69;100.00;100696.44;5059800;28;20837;-73
2023/01/12 00:47:12;;;;;;;3.00;1.02;;;;;;;9.65;100.00;100692.13;5048383;28;20056;-73
2023/01/12 00:49:40;;;;;;;9.73;3.35;;;;;;;9.65;100.00;100686.59;5050475;28;20044;-73
2023/01/12 00:52:09;;;;;;;5.88;1.88;;;;;;;9.71;100.00;100669.25;5056602;28;20052;-72
2023/01/12 00:54:41;;;;;;;13.35;3.05;;;;;;;9.65;100.00;100684.59;5058354;28;20047;-73
2023/01/12 00:57:08;;;;;;;11.65;2.72;;;;;;;9.79;100.00;100686.63;5051932;28;20960;-73
2023/01/12 00:59:35;;;;;;;11.48;3.22;;;;;;;9.71;100.00;100682.25;5049934;28;20047;-74
2023/01/12 01:02:02;;;;;;;4.28;1.60;;;;;;;9.85;100.00;100688.59;5054601;28;20098;-73
2023/01/12 01:04:29;;;;;;;14.32;3.20;;;;;;;9.73;100.00;100689.00;5058961;28;20048;-73
2023/01/12 01:06:56;;;;;;;3.08;1.42;;;;;;;9.74;100.00;100695.28;5051748;28;20048;-73
2023/01/12 01:09:22;;;;;;;11.60;2.90;;;;;;;9.71;100.00;100677.53;5055138;28;20046;-73
2023/01/12 01:11:49;;;;;;;0.70;0.70;;;;;;;9.81;100.00;100690.56;5056482;28;20880;-73
2023/01/12 01:14:16;;;;;;;1.35;0.98;;;;;;;9.90;100.00;100687.41;5050442;28;20048;-75
2023/01/12 01:16:42;;;;;;;10.00;3.05;;;;;;;9.79;100.00;100695.69;5050300;28;20040;-73
2023/01/12 01:19:09;;;;;;;12.43;3.42;;;;;;;9.85;100.00;100696.88;5050013;28;20055;-74
2023/01/12 01:21:35;;;;;;;8.43;2.60;;;;;;;9.92;100.00;100683.06;5051089;28;20044;-73
2023/01/12 01:24:02;;;;;;;6.15;2.33;;;;;;;9.96;100.00;100694.91;5054276;28;20888;-75
2023/01/12 01:26:30;;;;;;;6.95;2.22;;;;;;;9.99;100.00;100685.06;5054105;28;20052;-72
2023/01/12 01:28:57;;;;;;;11.02;3.38;;;;;;;10.00;100.00;100681.88;5052495;28;20053;-73
2023/01/12 01:31:25;;;;;;;10.13;2.28;;;;;;;10.15;100.00;100672.47;5050014;28;20044;-73
2023/01/12 01:33:52;;;;;;;14.77;4.45;;;;;;;10.02;100.00;100679.53;5051572;28;20075;-72
2023/01/12 01:36:20;;;;;;;7.97;2.33;;;;;;;10.16;100.00;100679.56;5055963;28;20053;-75
2023/01/12 01:38:48;;;;;;;14.65;2.40;;;;;;;10.07;100.00;100681.94;5050472;28;20052;-73
2023/01/12 01:41:21;;;;;;;9.13;2.38;;;;;;;10.09;100.00;100673.22;5048900;28;20562;-73
2023/01/12 01:43:56;;;;;;;7.38;1.80;;;;;;;10.17;100.00;100672.06;5056139;28;20058;-72
2023/01/12 01:46:26;;;;;;;;;;;;;;;10.14;100.00;100672.84;5059980;28;20041;-73
2023/01/12 01:48:53;;;;;;;15.35;3.03;;;;;;;10.13;100.00;100669.28;5060496;28;19928;-74
2023/01/12 01:51:20;;;;;;;11.00;3.42;;;;;;;10.12;100.00;100684.31;5056565;28;20048;-73
2023/01/12 01:53:48;;;;;;;13.80;3.10;;;;;;;10.17;100.00;100664.53;5058893;28;20048;-73
2023/01/12 01:56:24;;;;;;;12.13;3.45;;;;;;;10.11;100.00;100660.63;5048062;28;20048;-73
2023/01/12 01:59:05;;;;;;;4.38;2.17;;;;;;;10.20;100.00;100654.69;5056279;28;20045;-72
2023/01/12 02:01:31;;;;;;;6.93;3.03;;;;;;;10.14;100.00;100651.53;5049915;28;20051;-73
2023/01/12 02:03:59;;;;;;;16.80;3.88;;;;;;;10.16;100.00;100643.63;5047572;28;20858;-74
2023/01/12 02:06:27;;;;;;;15.27;4.18;;;;;;;10.08;100.00;100625.47;5057121;28;20330;-74
2023/01/12 02:09:00;;;;;;;3.10;1.70;;;;;;;10.19;100.00;100622.66;5052189;28;20057;-74
2023/01/12 02:17:03;;;;;;;22.27;3.75;;;;;;;10.12;100.00;100626.25;5054062;28;20041;-72
2023/01/12 02:19:56;;;;;;;10.13;2.97;;;;;;;10.19;100.00;100620.72;5049145;28;20044;-75
2023/01/12 02:22:51;;;;;;;15.85;3.30;;;;;;;10.15;100.00;100622.69;5051919;28;20225;-73
2023/01/12 02:25:42;;;;;;;15.95;3.45;;;;;;;10.17;100.00;100614.78;5057241;28;20727;-74
2023/01/12 02:28:30;;;;;;;13.25;3.33;;;;;;;10.12;100.00;100628.22;5049599;28;20442;-73
2023/01/12 02:31:15;;;;;;;15.52;3.08;;;;;;;10.19;100.00;100612.41;5049346;28;20048;-73
2023/01/12 02:34:01;;;;;;;6.82;1.95;;;;;;;10.28;100.00;100598.97;5053901;28;20143;-73
2023/01/12 02:36:55;;;;;;;14.68;3.35;;;;;;;10.11;100.00;100610.84;5058589;28;20041;-74
2023/01/12 02:39:28;;;;;;;3.60;1.90;;;;;;;10.20;100.00;100597.41;5057601;28;20577;-72
2023/01/12 02:45:20;;;;;;;;;;;;;;;10.13;100.00;100591.88;5052889;28;20059;-73
2023/01/12 02:47:55;;;;;;;10.57;2.35;;;;;;;10.15;100.00;100583.97;5070931;28;19924;-74
2023/01/12 02:50:31;;;;;;;17.95;4.32;;;;;;;10.00;100.00;100585.13;5076198;28;20052;-72
2023/01/12 02:53:09;;;;;;;15.30;3.90;;;;;;;10.02;100.00;100577.25;5068162;28;20052;-74
2023/01/12 02:55:38;;;;;;;20.83;4.05;;;;;;;10.00;100.00;100568.56;5072629;28;20715;-74
2023/01/12 02:58:08;;;;;;;20.67;3.85;;;;;;;10.03;100.00;100578.81;5072088;28;20044;-73
2023/01/12 03:00:37;;;;;;;18.10;3.10;;;;;;;10.09;100.00;100570.94;5071963;28;20044;-74
2023/01/12 03:03:05;;;;;;;13.57;3.50;;;;;;;9.96;100.00;100553.19;5068035;28;20060;-73
2023/01/12 03:05:31;;;;;;;11.80;3.10;;;;;;;10.05;100.00;100550.78;5085991;28;20113;-72
2023/01/12 03:08:02;;;;;;;12.80;3.00;;;;;;;9.94;100.00;100559.09;5070513;28;20059;-74
2023/01/12 03:10:34;;;;;;;14.95;2.88;;;;;;;10.05;100.00;100559.06;5068301;28;20048;-73
2023/01/12 03:13:06;;;;;;;15.57;3.30;;;;;;;10.03;100.00;100536.59;5075611;28;20063;-72
2023/01/12 03:15:36;;;;;;;12.73;2.92;;;;;;;10.05;100.00;100540.53;5073694;28;20059;-72
2023/01/12 03:18:08;;;;;;;19.33;2.92;;;;;;;9.98;100.00;100535.00;5074399;28;20278;-72
2023/01/12 03:20:42;;;;;;;25.13;5.43;;;;;;;9.85;100.00;100535.81;5067484;28;20055;-73
2023/01/12 03:23:19;;;;;;;16.42;2.90;;;;;;;9.99;100.00;100533.81;5067533;28;20127;-72
2023/01/12 03:25:48;;;;;;;21.38;5.10;;;;;;;9.84;100.00;100537.00;5069574;28;20057;-74
2023/01/12 03:28:18;;;;;;;17.20;2.25;;;;;;;9.93;100.00;100527.09;5067908;28;20054;-73
2023/01/12 03:30:59;;;;;;;18.95;3.58;;;;;;;9.89;100.00;100540.16;5067765;28;20055;-73
2023/01/12 03:33:26;;;;;;;17.08;3.08;;;;;;;9.97;100.00;100514.09;5067772;28;20055;-73
2023/01/12 03:36:15;;;;;;;12.32;3.40;;;;;;;9.94;100.00;100519.63;5070242;28;20058;-72
2023/01/12 03:38:57;;;;;;;8.40;2.28;;;;;;;9.99;100.00;100525.53;5075344;28;20049;-73
2023/01/12 03:41:39;;;;;;;19.10;3.15;;;;;;;9.93;100.00;100505.00;5067976;28;20052;-73
2023/01/12 03:44:12;;;;;;;18.48;3.22;;;;;;;9.97;100.00;100516.06;5070741;28;20048;-73
2023/01/12 03:46:44;;;;;;;16.17;4.20;;;;;;;9.99;100.00;100492.34;5067551;28;20043;-72
2023/01/12 03:49:17;;;;;;;15.10;2.90;;;;;;;10.12;100.00;100506.56;5067078;28;20608;-73
2023/01/12 03:51:47;;;;;;;8.98;3.05;;;;;;;10.12;100.00;100507.38;5067539;28;20056;-73
2023/01/12 03:54:14;;;;;;;6.40;2.00;;;;;;;10.07;100.00;100505.03;5066922;28;20049;-73
2023/01/12 03:56:44;;;;;;;16.73;3.90;;;;;;;10.04;100.00;100483.69;5067255;28;20048;-75
2023/01/12 03:59:11;;;;;;;19.75;3.90;;;;;;;10.00;100.00;100521.56;5069765;28;20045;-72
2023/01/12 04:01:38;;;;;;;13.50;2.83;;;;;;;10.13;100.00;100481.28;5067282;28;20045;-72
2023/01/12 04:04:05;;;;;;;14.45;3.35;;;;;;;10.18;100.00;100489.19;5065737;28;20071;-73
2023/01/12 04:06:31;;;;;;;26.85;5.53;;;;;;;10.31;100.00;100467.41;5067570;28;20048;-74
2023/01/12 04:08:58;;;;;;;12.88;2.20;;;;;;;10.22;100.00;100470.59;5074603;28;20049;-72
2023/01/12 04:14:09;;;;;;;6.85;1.13;;;;;;;10.25;100.00;100461.50;5066698;28;20052;-73
2023/01/12 04:16:36;;;;;;;17.35;2.90;;;;;;;10.16;100.00;100469.44;5067409;28;20036;-72
2023/01/12 04:19:02;;;;;;;14.05;3.28;;;;;;;10.27;100.00;100453.59;5073481;28;20055;-73
2023/01/12 04:24:14;;;;;;;10.63;2.15;;;;;;;10.42;100.00;100448.78;5073484;28;20063;-75
2023/01/12 04:26:40;;;;;;;18.25;3.25;;;;;;;10.21;100.00;100477.34;5076013;28;20040;-73
2023/01/12 04:29:07;;;;;;;8.32;3.58;;;;;;;10.36;100.00;100442.09;5078858;28;20052;-72
2023/01/12 04:31:33;;;;;;;12.05;2.35;;;;;;;10.39;100.00;100461.44;5070406;28;20048;-72
2023/01/12 04:34:00;;;;;;;22.00;3.28;;;;;;;10.31;100.00;100437.00;5078675;28;20521;-73
2023/01/12 04:36:26;;;;;;;6.05;1.48;;;;;;;10.38;100.00;100443.28;5071101;28;20045;-73
2023/01/12 04:38:53;;;;;;;9.05;1.85;;;;;;;10.41;100.00;100416.78;5078936;28;20083;-73
2023/01/12 04:41:19;;;;;;;17.58;3.25;;;;;;;10.13;100.00;100425.22;5083651;28;20056;-73
2023/01/12 04:43:46;;;;;;;13.73;2.90;;;;;;;10.13;100.00;100426.00;5073245;28;20052;-73
2023/01/12 04:46:12;;;;;;;14.77;3.00;;;;;;;10.14;100.00;100426.78;5077084;28;20600;-73
2023/01/12 04:48:39;;;;;;;18.88;3.08;;;;;;;10.16;100.00;100424.44;5070732;28;20045;-73
2023/01/12 04:51:06;;;;;;;7.38;3.75;;;;;;;10.19;100.00;100405.06;5070769;28;20139;-72
2023/01/12 04:53:32;;;;;;;7.97;1.80;;;;;;;10.20;100.00;100408.63;5070318;28;20048;-73
2023/01/12 04:56:03;;;;;;;8.48;1.13;;;;;;;10.14;100.00;100399.16;5070464;28;20387;-74
2023/01/12 04:58:30;;;;;;;15.68;3.25;;;;;;;10.05;100.00;100394.03;5077089;28;20054;-72
2023/01/12 05:00:56;;;;;;;9.40;2.13;;;;;;;10.19;100.00;100382.94;5069883;28;20052;-72
2023/01/12 05:03:23;;;;;;;18.60;2.80;;;;;;;10.14;100.00;100361.25;5076630;28;20109;-73
2023/01/12 05:05:50;;;;;;;7.65;1.83;;;;;;;10.16;100.00;100380.97;5070689;28;20070;-73
2023/01/12 05:11:01;;;;;;;15.95;2.88;;;;;;;10.08;100.00;100368.38;5069662;28;20083;-73
2023/01/12 05:13:30;;;;;;;14.77;2.25;;;;;;;10.07;100.00;100379.84;5069987;28;20291;-73
2023/01/12 05:16:06;;;;;;;13.40;2.30;;;;;;;9.98;100.00;100382.19;5074671;28;20044;-73
2023/01/12 05:18:33;;;;;;;11.00;2.33;;;;;;;10.01;100.00;100367.59;5075909;28;20086;-73
2023/01/12 05:20:59;;;;;;;2.17;1.55;;;;;;;10.10;100.00;100352.16;5072431;28;20049;-74
2023/01/12 05:23:26;;;;;;;10.80;2.80;;;;;;;10.00;100.00;100366.78;5077556;28;20056;-73
2023/01/12 05:25:52;;;;;;;12.73;3.00;;;;;;;9.96;100.00;100351.44;5068479;28;20044;-73
2023/01/12 05:28:19;;;;;;;10.43;2.53;;;;;;;9.95;100.00;100367.22;5075203;28;20082;-73
2023/01/12 05:30:45;;;;;;;4.55;1.25;;;;;;;10.00;100.00;100344.69;5069701;28;20068;-74
2023/01/12 05:33:15;;;;;;;7.68;1.92;;;;;;;9.98;100.00;100332.44;5073409;28;20071;-74
2023/01/12 05:35:42;;;;;;;7.30;1.85;;;;;;;9.97;100.00;100322.59;5073470;28;20056;-74
2023/01/12 05:38:08;;;;;;;2.67;0.73;;;;;;;10.04;100.00;100342.72;5075746;28;20067;-73
2023/01/12 05:40:35;;;;;;;12.38;2.92;;;;;;;9.90;100.00;100347.50;5069620;28;20070;-75
2023/01/12 05:45:47;;;;;;;6.35;2.15;;;;;;;9.76;100.00;100317.94;5073783;28;20057;-72
2023/01/12 05:48:13;;;;;;;5.75;1.38;;;;;;;9.74;100.00;100292.72;5083324;28;20062;-73
2023/01/12 05:50:40;;;;;;;9.25;2.72;;;;;;;9.82;100.00;100268.59;5074259;28;20135;-74
2023/01/12 05:53:07;;;;;;;10.90;2.13;;;;;;;9.93;100.00;100252.75;5069610;28;20083;-76
2023/01/12 05:55:36;;;;;;;13.63;2.75;;;;;;;9.82;100.00;100255.56;5083086;28;20056;-73
2023/01/12 05:58:02;;;;;;;8.10;2.08;;;;;;;9.84;100.00;100253.19;5075250;28;20052;-72
2023/01/12 06:00:29;;;;;;;9.20;2.03;;;;;;;9.86;100.00;100255.56;5068919;28;20044;-72
2023/01/12 06:02:55;;;;;;;4.47;1.20;;;;;;;9.99;100.00;100274.00;5077409;28;20063;-73
2023/01/12 06:05:22;;;;;;;7.88;1.83;;;;;;;9.90;100.00;100281.97;5067947;28;20134;-74
2023/01/12 06:07:48;;;;;;;3.75;0.95;;;;;;;9.96;100.00;100266.53;5081909;28;20052;-74
2023/01/12 06:10:15;;;;;;;11.65;2.22;;;;;;;9.90;100.00;100261.84;5068891;28;20048;-73
2023/01/12 06:15:26;;;;;;;9.32;1.80;;;;;;;9.86;100.00;100266.59;5068643;28;20045;-73
2023/01/12 06:17:55;;;;;;;18.20;3.15;;;;;;;9.90;100.00;100251.59;5076974;28;20044;-73
2023/01/12 06:20:21;;;;;;;11.40;1.50;;;;;;;10.01;100.00;100241.25;5075798;28;20052;-74
2023/01/12 06:22:48;;;;;;;5.53;1.80;;;;;;;9.90;100.00;100246.06;5068814;28;20059;-73
2023/01/12 06:25:14;;;;;;;4.95;1.55;;;;;;;10.00;100.00;100228.59;5076246;28;20045;-75
2023/01/12 06:27:41;;;;;;;11.15;2.35;;;;;;;9.93;100.00;100267.31;5077032;28;20052;-73
2023/01/12 06:30:08;;;;;;;11.00;2.60;;;;;;;9.85;100.00;100257.50;5081942;28;20052;-73
2023/01/12 06:32:35;;;;;;;4.40;1.70;;;;;;;9.98;100.00;100236.53;5073398;28;20051;-73
2023/01/12 06:35:02;;;;;;;12.30;1.83;;;;;;;9.99;100.00;100243.59;5068711;28;20064;-73
2023/01/12 06:37:43;;;;;;;4.82;1.15;;;;;;;9.97;100.00;100231.41;5072226;28;20502;-73
2023/01/12 06:40:11;;;;;;;8.73;1.80;;;;;;;9.84;100.00;100241.34;5070390;28;20092;-74
2023/01/12 06:42:40;;;;;;;7.68;1.63;;;;;;;9.79;100.00;100234.25;5076150;28;20036;-74
2023/01/12 06:45:08;;;;;;;10.25;2.47;;;;;;;9.75;100.00;100249.28;5066919;28;20049;-72
2023/01/12 06:47:43;;;;;;;8.90;2.50;;;;;;;9.76;100.00;100268.22;5070243;28;20059;-72
2023/01/12 06:50:11;;;;;;;9.38;2.00;;;;;;;9.86;100.00;100261.84;5077681;28;20498;-72
2023/01/12 06:52:37;;;;;;;8.75;2.42;;;;;;;9.82;100.00;100250.03;5083524;28;20048;-72
2023/01/12 06:55:04;;;;;;;7.18;1.80;;;;;;;9.80;100.00;100237.81;5083771;28;20091;-72
2023/01/12 06:57:30;;;;;;;8.93;2.08;;;;;;;9.81;100.00;100245.69;5072274;28;20491;-72
2023/01/12 06:59:57;;;;;;;6.80;1.58;;;;;;;9.86;100.00;100233.44;5074906;28;20442;-73
2023/01/12 07:02:23;;;;;;;8.48;1.77;;;;;;;9.90;100.00;100235.00;5068941;28;20048;-73
2023/01/12 07:04:50;;;;;;;6.55;1.60;;;;;;;9.90;100.00;100240.53;5073440;28;20060;-75
2023/01/12 07:07:16;;;;;;;5.05;1.20;;;;;;;9.94;100.00;100230.22;5070801;28;20048;-73
2023/01/12 07:09:43;;;;;;;6.10;1.67;;;;;;;9.91;100.00;100231.03;5067261;28;20055;-74
2023/01/12 07:12:09;;;;;;;7.45;1.83;;;;;;;9.88;100.00;100228.28;5067369;28;20044;-74
2023/01/12 07:14:36;;;;;;;4.57;1.90;;;;;;;9.94;100.00;100229.44;5093263;28;20050;-73
2023/01/12 07:17:02;;;;;;;4.97;1.20;;;;;;;9.84;100.00;100242.13;5070339;28;20091;-74
2023/01/12 07:19:29;;;;;;;4.35;1.67;;;;;;;9.89;100.00;100244.47;5081312;28;20044;-73
2023/01/12 07:21:55;;;;;;;13.60;2.00;;;;;;;9.86;100.00;100228.69;5075758;28;20052;-74
2023/01/12 07:24:22;;;;;;;5.75;1.80;;;;;;;9.87;100.00;100233.03;5071698;28;20048;-74
2023/01/12 07:26:52;;;;;;;8.93;2.38;;;;;;;9.84;100.00;100238.56;5079181;28;20044;-74
2023/01/12 07:29:19;;;;;;;5.93;2.60;;;;;;;9.87;100.00;100244.09;5066620;28;20044;-73
2023/01/12 07:31:47;;;;;;;11.50;2.33;;;;;;;9.85;100.00;100246.47;5067804;28;20052;-75
2023/01/12 07:34:14;;;;;;;5.90;1.40;;;;;;;9.94;100.00;100223.91;5067582;28;20044;-73
2023/01/12 07:36:41;;;;;;;8.60;1.60;;;;;;;10.02;100.00;100220.69;5069342;28;20040;-74
2023/01/12 07:39:09;;;;;;;8.25;1.88;;;;;;;9.94;100.00;100252.34;5079922;28;20067;-74
2023/01/12 07:44:21;;;;;;;6.00;1.70;;;;;;;10.04;100.00;100214.75;5067310;28;20058;-74
2023/01/12 07:46:47;;;;;;;5.38;1.73;;;;;;;10.00;100.00;100244.41;5073627;28;20290;-74
2023/01/12 07:49:14;;;;;;;5.32;1.80;;;;;;;10.04;100.00;100221.09;5072067;28;20044;-75
2023/01/12 07:51:40;;;;;;;8.77;2.28;;;;;;;9.97;100.00;100218.38;5074332;28;20048;-75
2023/01/12 07:54:07;;;;;;;15.35;2.60;;;;;;;10.08;100.00;100240.44;5082222;28;20056;-75
2023/01/12 07:56:33;;;;;;;7.53;1.98;;;;;;;10.24;100.00;100227.69;5068764;28;20608;-77
2023/01/12 07:59:00;;;;;;;4.03;1.27;;;;;;;10.23;100.00;100236.38;5073357;28;20105;-73
2023/01/12 08:01:27;;;;;;;4.43;1.20;;;;;;;10.18;100.00;100234.84;5072815;28;20580;-74
2023/01/12 08:03:53;;;;;;;12.45;2.05;;;;;;;10.23;100.00;100226.09;5073202;28;20066;-74
2023/01/12 08:06:20;;;;;;;11.02;3.03;;;;;;;10.19;100.00;100254.94;5072663;28;20128;-73
2023/01/12 08:08:46;;;;;;;10.10;2.08;;;;;;;10.26;100.00;100247.41;5074591;28;20052;-74
2023/01/12 08:11:13;;;;;;;5.53;1.15;;;;;;;10.29;100.00;100241.06;5072807;28;20147;-77
2023/01/12 08:13:39;;;;;;;7.80;2.17;;;;;;;10.26;100.00;100252.16;5072083;28;20054;-73
2023/01/12 08:16:29;;;;;;;8.55;1.75;;;;;;;10.32;100.00;100233.94;5072305;28;20059;-75
2023/01/12 08:19:05;;;;;;;7.32;2.15;;;;;;;10.33;100.00;100230.75;5083609;28;20048;-76
2023/01/12 08:21:44;;;;;;;7.00;1.92;;;;;;;10.35;100.00;100239.44;5079124;28;20052;-74
2023/01/12 08:24:20;;;;;;;11.77;2.70;;;;;;;10.37;100.00;100244.56;5071702;28;20828;-74
2023/01/12 08:26:52;;;;;;;5.75;1.90;;;;;;;10.47;100.00;100232.63;5085640;28;20058;-75
2023/01/12 08:29:29;;;;;;;9.45;2.55;;;;;;;10.44;100.00;100236.22;5069798;28;20044;-76
2023/01/12 08:32:02;;;;;;;10.43;2.60;;;;;;;10.42;100.00;100247.69;5079194;28;20135;-77
2023/01/12 08:34:31;;;;;;;4.78;1.45;;;;;;;10.55;100.00;100239.66;5078341;28;20119;-73
2023/01/12 08:37:00;;;;;;;6.97;2.67;;;;;;;10.50;100.00;100229.81;5073556;28;20099;-75
2023/01/12 08:39:28;;;;;;;3.88;1.70;;;;;;;10.58;100.00;100238.84;5076441;28;20131;-75
2023/01/12 08:41:54;;;;;;;8.77;2.35;;;;;;;10.60;100.00;100242.00;5069735;28;20167;-74
2023/01/12 08:44:21;;;;;;;10.98;2.53;;;;;;;10.64;100.00;100241.97;5071683;28;20063;-76
2023/01/12 08:46:50;;;;;;;3.58;1.85;;;;;;;10.70;100.00;100241.09;5072375;28;20059;-74
2023/01/12 08:49:21;;;;;;;5.88;2.15;;;;;;;10.70;100.00;100254.94;5071299;28;20044;-76
2023/01/12 08:51:49;;;;;;;10.02;2.22;;;;;;;10.70;100.00;100235.56;5074356;28;20074;-76
2023/01/12 08:54:17;;;;;;;4.35;1.58;;;;;;;10.79;100.00;100224.03;5069232;28;20056;-74
2023/01/12 08:56:44;;;;;;;11.63;2.50;;;;;;;10.70;100.00;100248.63;5080071;28;20052;-74
2023/01/12 08:59:11;;;;;;;9.25;2.05;;;;;;;10.88;100.00;100227.91;5071788;28;20048;-77
2023/01/12 09:01:38;;;;;;;11.98;2.35;;;;;;;10.86;100.00;100251.66;5070829;28;20056;-76
2023/01/12 09:04:05;;;;;;;12.13;2.17;;;;;;;10.87;100.00;100217.25;5066488;28;20047;-75
2023/01/12 09:06:35;;;;;;;11.13;2.33;;;;;;;10.95;100.00;100227.03;5077039;28;20044;-76
2023/01/12 09:09:07;;;;;;;7.75;2.22;;;;;;;10.94;100.00;100247.63;5074014;28;20048;-76
2023/01/12 09:11:35;;;;;;;10.07;2.42;;;;;;;10.94;100.00;100242.09;5069384;28;20058;-73
2023/01/12 09:14:02;;;;;;;9.52;2.45;;;;;;;10.91;100.00;100231.81;5068415;28;20048;-75
2023/01/12 09:16:30;;;;;;;1.90;1.25;;;;;;;11.02;100.00;100233.28;5080807;28;20506;-76
2023/01/12 09:18:57;;;;;;;5.13;2.08;;;;;;;10.99;100.00;100247.94;5071760;28;20048;-75
2023/01/12 09:21:26;;;;;;;6.07;2.13;;;;;;;11.05;100.00;100251.06;5067043;28;20053;-76
2023/01/12 09:23:53;;;;;;;10.52;2.05;;;;;;;11.01;100.00;100264.16;5072836;28;20058;-77
2023/01/12 09:26:23;;;;;;;1.75;1.23;;;;;;;11.11;100.00;100252.19;5076367;28;20048;-73
2023/01/12 09:28:50;;;;;;;8.85;2.22;;;;;;;11.07;100.00;100256.97;5067715;28;20916;-74
2023/01/12 09:31:22;;;;;;;9.00;2.60;;;;;;;11.03;100.00;100281.91;5045843;28;20121;-75
2023/01/12 09:33:48;;;;;;;7.13;1.70;;;;;;;11.14;100.00;100270.75;5058407;28;20058;-74
2023/01/12 09:36:20;;;;;;;6.82;2.00;;;;;;;11.12;100.00;100276.69;5048012;28;20053;-76
2023/01/12 09:38:48;;;;;;;6.63;1.80;;;;;;;11.18;100.00;100252.09;5048657;28;20135;-76
2023/01/12 09:47:48;;;;;;;7.22;2.25;;;;;;;11.43;100.00;100258.94;5048852;28;20044;-77
2023/01/12 09:50:21;;;;;;;2.40;0.95;;;;;;;11.48;100.00;100266.00;5012985;28;1110741;-78
2023/01/12 09:52:59;;;;;;;8.93;1.77;;;;;;;11.43;100.00;100274.75;5048175;28;20052;-75
2023/01/12 09:55:35;;;;;;;5.63;1.50;;;;;;;11.42;100.00;100287.84;5058662;28;20051;-76
2023/01/12 09:58:29;;;;;;;7.57;2.55;;;;;;;11.45;100.00;100283.44;5049110;28;20052;-75
2023/01/12 10:00:58;;;;;;;4.60;1.30;;;;;;;11.51;100.00;100273.50;5047959;28;20857;-76
2023/01/12 10:03:34;;;;;;;5.05;1.75;;;;;;;11.49;100.00;100278.66;5053334;28;20048;-75
2023/01/12 10:06:01;;;;;;;1.65;0.95;;;;;;;11.59;100.00;100297.94;5042237;28;20064;-76
2023/01/12 10:08:35;;;;;;;9.50;1.98;;;;;;;11.53;100.00;100284.94;5051526;28;20899;-75
2023/01/12 10:11:20;;;;;;;7.68;2.65;;;;;;;11.56;100.00;100278.56;5053226;28;20044;-75
2023/01/12 10:13:56;;;;;;;10.30;2.55;;;;;;;11.71;100.00;100291.09;5051639;28;20056;-75
2023/01/12 10:16:44;;;;;;;3.30;1.13;;;;;;;11.74;100.00;100298.59;5056457;28;20151;-75
2023/01/12 10:19:22;;;;;;;8.43;2.67;;;;;;;11.76;100.00;100298.94;5062296;28;20048;-78
2023/01/12 10:21:51;;;;;;;8.10;2.45;;;;;;;11.80;100.00;100291.34;5045884;28;20048;-75
2023/01/12 10:24:23;;;;;;;5.20;2.10;;;;;;;11.85;100.00;100293.69;5049486;28;20048;-75
2023/01/12 10:26:58;;;;;;;6.47;2.08;;;;;;;11.83;100.00;100298.84;5049495;28;20907;-75
2023/01/12 10:29:25;;;;;;;6.30;1.38;;;;;;;11.78;100.00;100293.78;5045116;28;20044;-75
2023/01/12 10:31:52;;;;;;;6.18;2.45;;;;;;;11.75;100.00;100302.91;5046481;28;20499;-78
2023/01/12 10:34:18;;;;;;;4.75;1.73;;;;;;;11.92;100.00;100301.91;5051048;28;20040;-77
2023/01/12 10:36:53;;;;;;;3.60;1.30;;;;;;;11.86;100.00;100292.47;5054753;28;20592;-76
2023/01/12 10:39:32;;;;;;;4.90;1.73;;;;;;;11.80;100.00;100296.91;5045293;28;20561;-78
2023/01/12 10:45:22;;;;;;;2.40;1.45;;;;;;;11.72;100.00;100300.97;5046952;28;20055;-76
2023/01/12 10:47:52;;;;;;;7.28;1.92;;;;;;;11.61;100.00;100292.78;5056757;28;20059;-78
2023/01/12 10:50:31;;;;;;;6.13;2.00;;;;;;;11.59;100.00;100308.22;5054469;28;20052;-79
2023/01/12 10:53:04;;;;;;;6.25;1.52;;;;;;;11.62;100.00;100285.25;5050991;28;20361;-78
2023/01/12 10:55:37;;;;;;;6.88;2.15;;;;;;;11.63;100.00;100309.00;5056836;28;20151;-76
2023/01/12 10:58:03;;;;;;;4.63;2.30;;;;;;;11.67;100.00;100293.91;5049646;28;20044;-78
2023/01/12 11:00:30;;;;;;;4.10;1.13;;;;;;;11.82;100.00;100298.06;5054683;28;20056;-78
2023/01/12 11:02:57;;;;;;;7.43;2.00;;;;;;;11.71;100.00;100322.34;5052026;28;20063;-77
2023/01/12 11:05:36;;;;;;;7.15;1.40;;;;;;;11.82;100.00;100309.16;5047825;28;20117;-77
2023/01/12 11:08:27;;;;;;;7.15;2.08;;;;;;;11.84;100.00;100301.19;5046029;28;20047;-77
2023/01/12 11:10:53;;;;;;;4.47;1.65;;;;;;;11.85;100.00;100302.75;5051338;28;20074;-77
2023/01/12 11:13:26;;;;;;;6.78;2.20;;;;;;;11.82;100.00;100297.28;5050694;28;20052;-79
2023/01/12 11:16:09;;;;;;;4.68;1.58;;;;;;;11.75;100.00;100358.34;5048142;28;20136;-78
2023/01/12 11:19:10;;;;;;;8.40;2.53;;;;;;;11.70;100.00;100303.34;5050647;28;20037;-78
2023/01/12 11:21:41;;;;;;;9.25;2.25;;;;;;;11.71;100.00;100304.94;5043566;28;20044;-78
2023/01/12 11:24:44;;;;;;;7.28;2.30;;;;;;;11.71;100.00;100302.19;5051203;28;20046;-76
2023/01/12 11:27:17;;;;;;;4.03;2.08;;;;;;;11.77;100.00;100290.22;5045439;28;20048;-78
2023/01/12 11:30:14;;;;;;;8.52;2.90;;;;;;;11.73;100.00;100288.69;5051066;28;20044;-78
2023/01/12 11:32:48;;;;;;;8.18;2.58;;;;;;;11.65;100.00;100304.59;5041004;28;20549;-75
2023/01/12 11:35:24;;;;;;;6.13;1.92;;;;;;;11.65;100.00;100309.38;5057446;28;20062;-77
2023/01/12 11:37:54;;;;;;;7.60;2.17;;;;;;;11.61;100.00;100298.31;5049676;28;20045;-75
2023/01/12 11:40:28;;;;;;;10.30;2.35;;;;;;;11.66;100.00;100274.91;5045660;28;20052;-76
2023/01/12 11:45:54;;;;;;;11.90;3.15;;;;;;;11.52;100.00;100283.38;5054070;28;20044;-76
2023/01/12 11:48:29;;;;;;;8.52;2.80;;;;;;;11.56;100.00;100306.28;5047528;28;20102;-77
2023/01/12 11:50:58;;;;;;;7.22;2.28;;;;;;;11.54;100.00;100301.16;5043863;28;20058;-77
2023/01/12 11:53:24;;;;;;;6.25;2.17;;;;;;;11.63;100.00;100290.38;5044370;28;20056;-77
2023/01/12 11:55:54;;;;;;;6.63;2.63;;;;;;;11.58;100.00;100281.72;5045666;28;20044;-75
2023/01/12 11:58:42;;;;;;;7.72;2.22;;;;;;;11.63;100.00;100278.50;5047854;28;20127;-76
2023/01/12 12:01:12;;;;;;;9.82;2.80;;;;;;;11.60;100.00;100274.56;5058193;28;20059;-75
2023/01/12 12:03:45;;;;;;;8.20;2.63;;;;;;;11.50;100.00;100280.22;5056445;28;20545;-76
2023/01/12 12:06:42;;;;;;;6.00;1.85;;;;;;;11.50;100.00;100264.38;5051956;28;20094;-78
2023/01/12 12:09:37;;;;;;;3.88;1.40;;;;;;;11.60;100.00;100282.88;5046972;28;21251;-77
2023/01/12 12:12:09;;;;;;;7.50;2.33;;;;;;;11.56;100.00;100287.66;5046411;28;20045;-76
2023/01/12 12:15:00;;;;;;;8.88;2.90;;;;;;;11.55;100.00;100301.94;5052572;28;20489;-79
2023/01/12 12:17:44;;;;;;;9.15;2.83;;;;;;;11.57;100.00;100275.38;5059342;28;20246;-77
2023/01/12 12:20:13;;;;;;;5.20;1.98;;;;;;;11.72;100.00;100268.50;5048644;28;20063;-77